Terminal Aerodrome Forecast
Issued by NWS Lake Charles, LA

Home | Current Version | Previous Version | Text Only | Print | Product List | Glossary On
Versions: 1 2 3 4 5 6 7 8 9 10 11 12 13 14 15 16 17
000
FTUS44 KLCH 241729
TAFAEX
TAF
KAEX 241729Z 2418/2518 17012G20KT P6SM BKN030
     FM250100 20010KT P6SM VCSH SCT030
     FM250400 VRB03KT P6SM BKN020
     FM251400 03006KT P6SM SCT020=

USA.gov is the U.S. government's official web portal to all federal, state and local government web resources and services.